Airfield :







YOU CAN JOIN US ON...

 
LOGIN :

Register | Disclaimer

   EN    FR    IT 

 









Legend :    VFR   Marginal VFR   IFR   Intensive IFR   Very Intensive IFR
Visi :
Ceiling :
>= 8 km
>= 3000ft
5 to 8 km
1000 to 3000 ft
1500m to 5 km
500 to 1000 ft
800 to 1500m
200 to 500 ft
< 800m
< 200 ft
Symbols :   Thunderstorms  Fog  Heavy snow  Heavy precipitations  Wind > 20 kt






- Airport Elevation : 107 ft


KBVY - Beverly Municipal

CURRENT METAR :
  • 260014Z 16004KT 1/4SM FG OVC004 13/12 A3020 RMK AO2 T01280117

EXPIRED METARs :
  • 252353Z 17003KT 6SM BR OVC005 13/12 A3020 RMK AO2 SLP223 T01280117 10167 20128 56010
  • 252253Z 18004KT 10SM OVC007 14/12 A3021 RMK AO2 SLP225 T01440117
  • 252153Z 14005KT 10SM OVC009 16/12 A3021 RMK AO2 SLP225 T01610122
  • 252117Z 13004KT 10SM BKN009 OVC016 16/12 A3022 RMK AO2 T01610122

TAF N/A
KZBW FIR / North America



MET'MAP, your aeronautical weather chart ! - Copyright ORBIFLY December 2007 - Disclaimer

ORBIFLY MET'MAP TEAM :

Programming & Development : Alexandra Zaïnal
Concept & original design : Baudouin d'Aumeries
Assistance for programming : Marc-Olivier Méhu
Technical & hardware support : Manuel Goepfert

Contact : metmap@orbifly.com




SOURCES & CREDITS :

   NOAA